createdAt,value
2022-12-04T00:03:25.735Z,94.76
2022-12-04T00:08:30.500Z,95.19
2022-12-04T00:13:34.794Z,95.63
2022-12-04T00:18:38.910Z,95.70
2022-12-04T00:23:44.617Z,95.85
2022-12-04T00:28:48.855Z,96.32
2022-12-04T00:33:52.330Z,96.28
2022-12-04T00:38:57.490Z,96.71
2022-12-04T00:44:01.370Z,96.88
2022-12-04T00:49:04.935Z,96.89
2022-12-04T00:54:09.708Z,97.21
2022-12-04T00:59:13.525Z,97.35
2022-12-04T01:04:16.972Z,97.43
2022-12-04T01:09:21.766Z,97.39
2022-12-04T01:14:25.166Z,97.43
2022-12-04T01:19:28.580Z,97.70
2022-12-04T01:24:33.362Z,97.68
2022-12-04T01:29:36.883Z,97.58
2022-12-04T01:34:40.221Z,97.82
2022-12-04T01:39:45.078Z,97.81
2022-12-04T01:45:21.847Z,97.96
2022-12-04T01:50:25.506Z,97.96
2022-12-04T01:55:31.021Z,97.94
2022-12-04T02:00:34.473Z,98.05
2022-12-04T02:05:37.892Z,98.21
2022-12-04T02:10:52.929Z,98.33
2022-12-04T02:16:24.708Z,98.20
2022-12-04T02:21:35.480Z,98.35
2022-12-04T02:26:49.004Z,98.38
2022-12-04T02:32:00.223Z,98.26
2022-12-04T02:37:10.087Z,98.23
2022-12-04T02:42:17.982Z,98.27
2022-12-04T02:47:25.530Z,98.32
2022-12-04T02:52:33.268Z,98.63
2022-12-04T02:57:41.664Z,98.62
2022-12-04T03:02:49.964Z,98.61
2022-12-04T03:07:58.460Z,98.67
2022-12-04T03:13:06.654Z,98.70
2022-12-04T03:18:16.368Z,98.92
2022-12-04T03:23:25.069Z,99.02
2022-12-04T03:28:34.719Z,99.09
2022-12-04T03:33:43.819Z,99.03
2022-12-04T03:38:55.254Z,99.27
2022-12-04T03:44:05.273Z,99.02
2022-12-04T03:49:17.932Z,99.31
2022-12-04T03:54:25.196Z,99.15
2022-12-04T03:59:35.569Z,99.23
2022-12-04T04:04:42.765Z,99.12
2022-12-04T04:09:48.843Z,99.02
2022-12-04T04:15:13.365Z,99.32
2022-12-04T04:20:40.262Z,99.15
2022-12-04T04:25:45.215Z,99.21
2022-12-04T04:30:48.593Z,99.21
2022-12-04T04:35:58.950Z,99.21
2022-12-04T04:41:10.596Z,99.27
2022-12-04T04:46:19.611Z,99.64
2022-12-04T04:51:25.474Z,99.61
2022-12-04T04:56:28.987Z,99.76
2022-12-04T05:01:32.425Z,99.79
2022-12-04T05:06:37.215Z,100.00
2022-12-04T05:11:40.570Z,100.00
2022-12-04T05:16:43.964Z,100.00
2022-12-04T05:21:48.821Z,100.00
2022-12-04T05:26:52.186Z,100.00
2022-12-04T05:31:55.610Z,100.00
2022-12-04T05:37:00.451Z,100.00
2022-12-04T05:42:03.847Z,100.00
2022-12-04T05:47:07.442Z,100.00
2022-12-04T05:52:12.487Z,100.00
2022-12-04T05:57:15.962Z,100.00
2022-12-04T06:02:19.623Z,100.00
2022-12-04T06:07:24.475Z,100.00
2022-12-04T06:12:27.873Z,100.00
2022-12-04T06:17:31.229Z,100.00
2022-12-04T06:22:36.134Z,100.00
2022-12-04T06:27:39.492Z,100.00
2022-12-04T06:32:42.888Z,100.00
2022-12-04T06:37:47.691Z,100.00
2022-12-04T06:42:51.194Z,100.00
2022-12-04T06:47:54.566Z,100.00
2022-12-04T06:53:03.493Z,100.00
2022-12-04T06:58:09.984Z,100.00
2022-12-04T07:03:13.417Z,100.00
2022-12-04T07:08:18.968Z,100.00
2022-12-04T07:13:22.396Z,100.00
2022-12-04T07:18:25.767Z,100.00
2022-12-04T07:23:30.571Z,100.00
2022-12-04T07:28:34.158Z,100.00
2022-12-04T07:33:38.353Z,100.00
2022-12-04T07:38:43.805Z,100.00
2022-12-04T07:43:47.354Z,100.00
2022-12-04T07:48:50.722Z,100.00
2022-12-04T07:54:02.010Z,100.00
2022-12-04T07:59:06.755Z,100.00
2022-12-04T08:04:12.084Z,100.00
2022-12-04T08:09:16.911Z,100.00
2022-12-04T08:14:20.389Z,100.00
2022-12-04T08:19:23.870Z,100.00
2022-12-04T08:24:28.652Z,100.00
2022-12-04T08:29:32.023Z,100.00
2022-12-04T08:34:35.702Z,100.00
2022-12-04T08:39:40.437Z,100.00
2022-12-04T08:44:43.824Z,100.00
2022-12-04T08:49:47.254Z,100.00
2022-12-04T08:54:52.849Z,100.00
2022-12-04T08:59:56.490Z,100.00
2022-12-04T09:05:00.123Z,100.00
2022-12-04T09:10:05.905Z,100.00
2022-12-04T09:15:10.357Z,100.00
2022-12-04T09:20:15.132Z,100.00
2022-12-04T09:25:20.274Z,100.00
2022-12-04T09:30:23.721Z,100.00
2022-12-04T09:35:27.166Z,100.00
2022-12-04T09:40:39.712Z,100.00
2022-12-04T09:45:50.199Z,100.00
2022-12-04T09:50:55.453Z,100.00
2022-12-04T09:56:05.790Z,100.00
2022-12-04T10:01:22.200Z,100.00
2022-12-04T10:06:29.638Z,99.83
2022-12-04T10:11:46.125Z,99.83
2022-12-04T10:17:11.086Z,99.35
2022-12-04T10:22:22.730Z,99.16
2022-12-04T10:27:32.262Z,99.05
2022-12-04T10:32:36.454Z,98.83
2022-12-04T10:37:43.361Z,99.07
2022-12-04T10:42:54.657Z,99.18
2022-12-04T10:47:58.230Z,98.69
2022-12-04T10:53:01.870Z,98.79
2022-12-04T10:58:17.322Z,98.80
2022-12-04T11:03:26.667Z,98.37
2022-12-04T11:08:36.525Z,97.86
2022-12-04T11:13:42.299Z,98.17
2022-12-04T11:18:51.196Z,97.72
2022-12-04T11:23:55.274Z,97.93
2022-12-04T11:29:02.607Z,97.27
2022-12-04T11:34:09.514Z,97.51
2022-12-04T11:39:19.633Z,97.47
2022-12-04T11:44:27.796Z,96.71
2022-12-04T11:49:33.139Z,97.03
2022-12-04T11:54:45.682Z,96.88
2022-12-04T12:00:03.906Z,96.84
2022-12-04T12:05:45.039Z,97.02
2022-12-04T12:10:57.231Z,97.31
2022-12-04T12:16:10.972Z,97.59
2022-12-04T12:21:22.665Z,97.63
2022-12-04T12:26:35.704Z,97.88
2022-12-04T12:32:10.847Z,98.09
2022-12-04T12:37:23.610Z,97.56
2022-12-04T12:42:32.234Z,98.04
2022-12-04T12:47:41.658Z,97.78
2022-12-04T12:52:49.137Z,98.41
2022-12-04T12:58:01.994Z,98.21
2022-12-04T13:03:19.666Z,97.99
2022-12-04T13:08:27.809Z,98.48
2022-12-04T13:13:34.413Z,98.72
2022-12-04T13:18:43.477Z,98.73
2022-12-04T13:24:01.069Z,98.75
2022-12-04T13:29:14.847Z,98.49
2022-12-04T13:34:42.961Z,98.84
2022-12-04T13:40:29.453Z,99.02
2022-12-04T13:45:35.096Z,98.21
2022-12-04T13:50:41.661Z,98.59
2022-12-04T13:55:45.033Z,98.68
2022-12-04T14:00:48.509Z,98.87
2022-12-04T14:05:53.977Z,99.31
2022-12-04T14:11:04.038Z,99.18
2022-12-04T14:16:18.937Z,99.24
2022-12-04T14:21:24.411Z,99.20
2022-12-04T14:31:56.319Z,99.41
2022-12-04T14:37:02.426Z,99.23
2022-12-04T14:42:08.747Z,99.69
2022-12-04T14:47:23.386Z,99.87
2022-12-04T14:52:38.418Z,100.00
2022-12-04T14:58:24.103Z,99.94
2022-12-04T15:03:28.908Z,100.00
2022-12-04T15:08:34.469Z,100.00
2022-12-04T15:13:39.876Z,99.90
2022-12-04T15:18:53.715Z,100.00
2022-12-04T15:23:58.551Z,100.00
2022-12-04T15:29:04.388Z,100.00
2022-12-04T15:34:10.664Z,100.00
2022-12-04T15:39:20.004Z,100.00
2022-12-04T15:44:26.436Z,100.00
2022-12-04T15:49:31.273Z,100.00
2022-12-04T15:54:37.369Z,100.00
2022-12-04T15:59:40.856Z,100.00
2022-12-04T16:04:45.644Z,100.00
2022-12-04T16:10:01.312Z,100.00
2022-12-04T16:15:07.774Z,100.00
2022-12-04T16:20:12.799Z,100.00
2022-12-04T16:25:18.687Z,100.00
2022-12-04T16:30:22.118Z,100.00
2022-12-04T16:35:25.597Z,100.00
2022-12-04T16:40:30.481Z,100.00
2022-12-04T16:45:36.529Z,100.00
2022-12-04T16:50:39.973Z,100.00
2022-12-04T16:55:47.579Z,100.00
2022-12-04T17:00:56.487Z,100.00
2022-12-04T17:06:01.419Z,100.00
2022-12-04T17:11:06.855Z,100.00
2022-12-04T17:16:12.993Z,100.00
2022-12-04T17:21:19.060Z,100.00
2022-12-04T17:26:24.084Z,100.00
2022-12-04T17:31:28.207Z,100.00
2022-12-04T17:36:31.646Z,100.00
2022-12-04T17:41:36.507Z,100.00
2022-12-04T17:46:40.166Z,100.00
2022-12-04T17:51:45.115Z,100.00
2022-12-04T17:56:54.761Z,100.00
2022-12-04T18:02:01.023Z,100.00
2022-12-04T18:07:04.951Z,100.00
2022-12-04T18:12:09.770Z,100.00
2022-12-04T18:17:13.314Z,100.00
2022-12-04T18:22:17.362Z,100.00
2022-12-04T18:27:22.262Z,100.00
2022-12-04T18:32:25.648Z,100.00
2022-12-04T18:37:29.025Z,100.00
2022-12-04T18:42:33.788Z,100.00
2022-12-04T18:47:37.730Z,100.00
2022-12-04T18:52:41.314Z,100.00
2022-12-04T18:57:46.161Z,100.00
2022-12-04T19:02:50.068Z,100.00
2022-12-04T19:07:53.833Z,100.00
2022-12-04T19:12:58.743Z,100.00
2022-12-04T19:18:02.205Z,100.00
2022-12-04T19:23:05.643Z,100.00
2022-12-04T19:28:10.506Z,100.00
2022-12-04T19:33:13.947Z,100.00
2022-12-04T19:38:17.367Z,100.00
2022-12-04T19:43:22.130Z,100.00
2022-12-04T19:48:25.512Z,100.00
2022-12-04T19:53:28.989Z,100.00
2022-12-04T19:58:35.480Z,100.00
2022-12-04T20:03:38.974Z,100.00
2022-12-04T20:08:43.518Z,100.00
2022-12-04T20:13:49.318Z,100.00
2022-12-04T20:18:53.021Z,100.00
2022-12-04T20:23:56.401Z,100.00
2022-12-04T20:29:02.404Z,100.00
2022-12-04T20:34:07.994Z,100.00
2022-12-04T20:39:12.604Z,100.00
2022-12-04T20:44:19.607Z,100.00
2022-12-04T20:49:23.085Z,100.00
2022-12-04T20:54:26.488Z,100.00
2022-12-04T20:59:31.292Z,100.00
2022-12-04T21:04:37.704Z,100.00
2022-12-04T21:09:41.093Z,100.00
2022-12-04T21:15:03.518Z,100.00
2022-12-04T21:20:08.942Z,100.00
2022-12-04T21:25:12.543Z,100.00
2022-12-04T21:30:17.447Z,100.00
2022-12-04T21:35:20.795Z,100.00
2022-12-04T21:40:24.103Z,100.00
2022-12-04T21:45:28.805Z,100.00
2022-12-04T21:50:32.242Z,100.00
2022-12-04T21:55:35.626Z,100.00
2022-12-04T22:00:40.462Z,100.00
2022-12-04T22:05:44.463Z,100.00
2022-12-04T22:10:48.708Z,100.00
2022-12-04T22:15:53.611Z,100.00
2022-12-04T22:20:56.981Z,100.00
2022-12-04T22:26:06.385Z,100.00
2022-12-04T22:31:12.965Z,100.00
2022-12-04T22:36:18.816Z,100.00
2022-12-04T22:41:24.044Z,100.00
2022-12-04T22:46:28.915Z,100.00
2022-12-04T22:51:32.849Z,100.00
2022-12-04T22:56:36.252Z,100.00
2022-12-04T23:01:41.012Z,100.00
2022-12-04T23:06:44.387Z,100.00
2022-12-04T23:11:52.361Z,100.00
2022-12-04T23:16:57.747Z,100.00
2022-12-04T23:22:01.176Z,100.00
2022-12-04T23:27:04.565Z,100.00
2022-12-04T23:32:09.295Z,100.00
2022-12-04T23:37:12.793Z,100.00
2022-12-04T23:42:16.177Z,100.00
2022-12-04T23:47:21.068Z,100.00
2022-12-04T23:52:24.473Z,100.00
2022-12-04T23:57:30.400Z,100.00
